Terminal Aerodrome Forecast
Issued by NWS

Home | Current Version | Previous Version | Text Only | Print | Product List | Glossary On
Versions: 1 2 3 4 5 6 7 8 9 10 11 12
000
FTUS46 KSEW 060500
TAFBLI
TAF
KBLI 060520Z 0606/0706 17007KT P6SM SCT050
     FM061200 18006KT P6SM BKN040
     FM062000 33007KT P6SM SCT040
     FM070300 04004KT P6SM SKC=

USA.gov is the U.S. government's official web portal to all federal, state and local government web resources and services.